»·PEaware :: N228Q S36-KORS

N228Q :: S36-KORS

FLIGHT INFORMATION

Flight Status: Arrived
Operator: Privately registered:
United States
More flights under this callsign
Pilot: Chuck O. (4337)
Aircraft: BEECH AIRCRAFT BONANZA
(BE35)
More flights by this aircraft type
Origin: S36 Norman Grier Field
United States
Destination: KORS Orcas Island
United States
More flights between these airports :: More routes between these airports
Route: DIRECT
File this flight plan on PilotEdge
Remarks: PE ABC WA Leg 14
Altitude:
(Current/Filed)
3,500ft
Speed:
(Current/Filed)
150kts
Departed: 05-Jun-20 01:06 PM
Arrived: 05-Jun-20 01:46 PM
Distance/Time
Traveled:
88nm/0:40
Distance/Time
To Go:
Arrived

Flight Plot

Page will automatically refresh every two minutes.

Flight plan parsing failed; only flown route is shown


Map Options




Map Legend


Flown Route
Filed Route
Departure Airport
Arrival Airport
Navaid (VOR, NDB)
Fix

Horizontal Profiles

Position Reports

Time Latitude Longitude Heading Altitude Ground
Speed
05-Jun-20 12:57 47.340699 -122.103833 77 461ft 0kts
05-Jun-20 12:58 47.340699 -122.103829 77 461ft 0kts
05-Jun-20 12:59 47.340700 -122.103825 77 461ft 0kts
05-Jun-20 13:00 47.340701 -122.103820 77 461ft 0kts
05-Jun-20 13:01 47.340701 -122.103814 77 461ft 0kts
05-Jun-20 13:02 47.341041 -122.104238 175 461ft 10kts
05-Jun-20 13:03 47.335012 -122.102817 170 461ft 22kts
05-Jun-20 13:04 47.333142 -122.102373 202 461ft 0kts
05-Jun-20 13:04 47.333640 -122.102957 349 461ft 25kts
05-Jun-20 13:06 47.360145 -122.106942 22 1437ft 99kts
05-Jun-20 13:07 47.383777 -122.086441 15 2540ft 104kts
05-Jun-20 13:07 47.395772 -122.054724 63 3392ft 117kts
05-Jun-20 13:09 47.424464 -121.995739 51 3468ft 163kts
05-Jun-20 13:09 47.448596 -121.950778 51 3496ft 171kts
05-Jun-20 13:10 47.486540 -121.915238 4 3502ft 172kts
05-Jun-20 13:12 47.542151 -121.906193 6 3500ft 172kts
05-Jun-20 13:12 47.581670 -121.898814 6 3498ft 172kts
05-Jun-20 13:13 47.623521 -121.890893 6 3506ft 172kts
05-Jun-20 13:14 47.671098 -121.881853 6 3507ft 172kts
05-Jun-20 13:15 47.718857 -121.872758 6 3500ft 172kts
05-Jun-20 13:16 47.765965 -121.864767 354 3502ft 169kts
05-Jun-20 13:17 47.808379 -121.894150 331 3503ft 168kts
05-Jun-20 13:18 47.849965 -121.926798 331 3503ft 168kts
05-Jun-20 13:19 47.891430 -121.959340 331 3505ft 168kts
05-Jun-20 13:20 47.933105 -121.992098 331 3508ft 168kts
05-Jun-20 13:21 47.974661 -122.024821 331 3510ft 168kts
05-Jun-20 13:22 48.016173 -122.057568 331 3514ft 168kts
05-Jun-20 13:23 48.057707 -122.090393 331 3504ft 169kts
05-Jun-20 13:24 48.098084 -122.122361 331 3500ft 169kts
05-Jun-20 13:25 48.135853 -122.152317 331 3497ft 169kts
05-Jun-20 13:26 48.177476 -122.185388 331 3494ft 169kts
05-Jun-20 13:27 48.215700 -122.215811 331 3497ft 169kts
05-Jun-20 13:28 48.255454 -122.247512 331 3296ft 178kts
05-Jun-20 13:29 48.299988 -122.283077 331 2697ft 182kts
05-Jun-20 13:30 48.343442 -122.317849 331 2492ft 170kts
05-Jun-20 13:31 48.384565 -122.350838 331 2505ft 165kts
05-Jun-20 13:32 48.425007 -122.383334 331 2504ft 164kts
05-Jun-20 13:33 48.461414 -122.412637 331 2489ft 164kts
05-Jun-20 13:34 48.491037 -122.464054 306 2336ft 164kts
05-Jun-20 13:35 48.514713 -122.512406 305 2023ft 164kts
05-Jun-20 13:36 48.535984 -122.571705 297 1878ft 156kts
05-Jun-20 13:37 48.562555 -122.612045 321 1882ft 153kts
05-Jun-20 13:38 48.593097 -122.656174 305 1885ft 152kts
05-Jun-20 13:39 48.603023 -122.717611 278 1888ft 153kts
05-Jun-20 13:40 48.608901 -122.786143 278 1348ft 166kts
05-Jun-20 13:41 48.617643 -122.852561 298 1203ft 157kts
05-Jun-20 13:42 48.644267 -122.894456 317 1201ft 115kts
05-Jun-20 13:43 48.669171 -122.912546 10 694ft 99kts
05-Jun-20 13:44 48.695150 -122.910837 0 275ft 84kts
05-Jun-20 13:45 48.709520 -122.910573 17 16ft 6kts
05-Jun-20 13:46 48.709333 -122.909958 178 16ft 4kts
05-Jun-20 13:47 48.707030 -122.909998 178 16ft 7kts
05-Jun-20 13:48 48.705635 -122.909553 180 16ft 4kts
05-Jun-20 13:49 48.705476 -122.909553 180 16ft 0kts
05-Jun-20 13:50 48.705476 -122.909553 180 16ft 0kts
05-Jun-20 13:51 48.705476 -122.909553 180 16ft 0kts
05-Jun-20 13:52 48.705476 -122.909553 180 16ft 0kts
05-Jun-20 13:53 48.705476 -122.909553 180 16ft 0kts
05-Jun-20 13:54 48.705476 -122.909553 180 16ft 0kts
05-Jun-20 13:55 48.705476 -122.909553 180 16ft 0kts
05-Jun-20 13:56 48.705476 -122.909553 180 16ft 0kts
05-Jun-20 13:57 48.705476 -122.909553 180 16ft 0kts

Navigation Log

Ident Type
Flight plan parsing failed, navigation log unavailable